Terminal Aerodrome Forecast
Issued by NWS

Home | Current Version | Previous Version | Text Only | Print | Product List | Glossary On
Versions: 1 2 3 4 5 6 7 8 9 10 11 12 13 14 15 16
000
FTUS41 KGYX 010700 AAA
TAFLEB
TAF AMD
KLEB 010740Z 0108/0206 VRB03KT 2SM BR BKN001
     FM010900 00000KT 1/4SM FG VV001
     FM011200 VRB03KT P6SM SCT002 SCT250
     FM011600 20007KT P6SM SCT045 SCT080
     FM020000 00000KT P6SM SCT120=

USA.gov is the U.S. government's official web portal to all federal, state and local government web resources and services.